sensor_id;sensor_type;location;lat;lon;timestamp;pressure;altitude;pressure_sealevel;temperature;humidity
30339;BME280;795;49.296;11.348;2022-09-13T00:01:00;96093.19;;;12.11;100.00
30339;BME280;795;49.296;11.348;2022-09-13T00:03:30;96099.69;;;12.17;100.00
30339;BME280;795;49.296;11.348;2022-09-13T00:05:57;96096.00;;;12.18;100.00
30339;BME280;795;49.296;11.348;2022-09-13T00:08:32;96087.91;;;12.18;100.00
30339;BME280;795;49.296;11.348;2022-09-13T00:10:59;96103.66;;;12.21;100.00
30339;BME280;795;49.296;11.348;2022-09-13T00:13:26;96095.22;;;12.24;100.00
30339;BME280;795;49.296;11.348;2022-09-13T00:15:52;96109.88;;;12.36;100.00
30339;BME280;795;49.296;11.348;2022-09-13T00:18:20;96093.56;;;12.37;100.00
30339;BME280;795;49.296;11.348;2022-09-13T00:20:47;96092.16;;;12.41;100.00
30339;BME280;795;49.296;11.348;2022-09-13T00:23:14;96090.59;;;12.47;100.00
30339;BME280;795;49.296;11.348;2022-09-13T00:25:41;96097.19;;;12.44;100.00
30339;BME280;795;49.296;11.348;2022-09-13T00:28:08;96087.97;;;12.39;100.00
30339;BME280;795;49.296;11.348;2022-09-13T00:30:35;96095.84;;;12.40;100.00
30339;BME280;795;49.296;11.348;2022-09-13T00:33:02;96104.47;;;12.50;100.00
30339;BME280;795;49.296;11.348;2022-09-13T00:35:32;96086.47;;;12.51;100.00
30339;BME280;795;49.296;11.348;2022-09-13T00:38:00;96078.41;;;12.51;100.00
30339;BME280;795;49.296;11.348;2022-09-13T00:40:27;96074.88;;;12.50;100.00
30339;BME280;795;49.296;11.348;2022-09-13T00:42:56;96080.44;;;12.49;100.00
30339;BME280;795;49.296;11.348;2022-09-13T00:45:23;96081.56;;;12.54;100.00
30339;BME280;795;49.296;11.348;2022-09-13T00:48:01;96081.25;;;12.64;100.00
30339;BME280;795;49.296;11.348;2022-09-13T00:50:39;96084.50;;;12.59;100.00
30339;BME280;795;49.296;11.348;2022-09-13T00:53:19;96080.22;;;12.65;100.00
30339;BME280;795;49.296;11.348;2022-09-13T00:56:02;96094.81;;;12.56;100.00
30339;BME280;795;49.296;11.348;2022-09-13T00:58:45;96074.22;;;12.48;100.00
30339;BME280;795;49.296;11.348;2022-09-13T01:01:17;96079.25;;;12.51;100.00
30339;BME280;795;49.296;11.348;2022-09-13T01:03:47;96077.13;;;12.47;100.00
30339;BME280;795;49.296;11.348;2022-09-13T01:06:28;96064.88;;;12.44;100.00
30339;BME280;795;49.296;11.348;2022-09-13T01:09:01;96065.59;;;12.38;100.00
30339;BME280;795;49.296;11.348;2022-09-13T01:11:48;96060.69;;;12.42;100.00
30339;BME280;795;49.296;11.348;2022-09-13T01:14:23;96057.38;;;12.40;100.00
30339;BME280;795;49.296;11.348;2022-09-13T01:16:51;96053.84;;;12.39;100.00
30339;BME280;795;49.296;11.348;2022-09-13T01:19:20;96052.63;;;12.42;100.00
30339;BME280;795;49.296;11.348;2022-09-13T01:25:13;96061.53;;;12.42;100.00
30339;BME280;795;49.296;11.348;2022-09-13T01:28:25;96061.72;;;12.41;100.00
30339;BME280;795;49.296;11.348;2022-09-13T01:31:24;96053.00;;;12.39;100.00
30339;BME280;795;49.296;11.348;2022-09-13T01:34:59;96047.09;;;12.50;100.00
30339;BME280;795;49.296;11.348;2022-09-13T01:37:57;96044.31;;;12.58;100.00
30339;BME280;795;49.296;11.348;2022-09-13T01:48:00;96038.56;;;12.82;100.00
30339;BME280;795;49.296;11.348;2022-09-13T01:50:41;96041.03;;;12.84;100.00
30339;BME280;795;49.296;11.348;2022-09-13T01:53:36;96060.00;;;12.90;100.00
30339;BME280;795;49.296;11.348;2022-09-13T01:56:37;96062.22;;;12.87;100.00
30339;BME280;795;49.296;11.348;2022-09-13T01:59:33;96052.88;;;12.83;100.00
30339;BME280;795;49.296;11.348;2022-09-13T02:02:36;96062.53;;;12.77;100.00
30339;BME280;795;49.296;11.348;2022-09-13T02:05:26;96050.44;;;12.67;100.00
30339;BME280;795;49.296;11.348;2022-09-13T02:08:20;96047.78;;;12.52;100.00
30339;BME280;795;49.296;11.348;2022-09-13T02:11:04;96053.44;;;12.57;100.00
30339;BME280;795;49.296;11.348;2022-09-13T02:13:42;96051.28;;;12.52;100.00
30339;BME280;795;49.296;11.348;2022-09-13T02:19:05;96060.22;;;12.38;100.00
30339;BME280;795;49.296;11.348;2022-09-13T02:21:39;96059.69;;;12.28;100.00
30339;BME280;795;49.296;11.348;2022-09-13T02:24:25;96048.47;;;12.25;100.00
30339;BME280;795;49.296;11.348;2022-09-13T02:26:59;96060.22;;;12.38;100.00
30339;BME280;795;49.296;11.348;2022-09-13T02:29:32;96059.00;;;12.41;100.00
30339;BME280;795;49.296;11.348;2022-09-13T02:32:21;96048.19;;;12.34;100.00
30339;BME280;795;49.296;11.348;2022-09-13T02:35:16;96044.56;;;12.27;100.00
30339;BME280;795;49.296;11.348;2022-09-13T02:37:59;96028.16;;;12.22;100.00
30339;BME280;795;49.296;11.348;2022-09-13T02:40:39;96027.94;;;12.24;100.00
30339;BME280;795;49.296;11.348;2022-09-13T02:43:16;96024.53;;;12.30;100.00
30339;BME280;795;49.296;11.348;2022-09-13T02:46:28;96021.69;;;12.38;100.00
30339;BME280;795;49.296;11.348;2022-09-13T02:49:57;96026.78;;;12.47;100.00
30339;BME280;795;49.296;11.348;2022-09-13T02:53:06;96022.81;;;12.43;100.00
30339;BME280;795;49.296;11.348;2022-09-13T02:56:28;96016.00;;;12.47;100.00
30339;BME280;795;49.296;11.348;2022-09-13T02:59:20;96018.63;;;12.41;100.00
30339;BME280;795;49.296;11.348;2022-09-13T03:01:58;96014.09;;;12.41;100.00
30339;BME280;795;49.296;11.348;2022-09-13T03:04:29;96002.53;;;12.47;100.00
30339;BME280;795;49.296;11.348;2022-09-13T03:06:56;95993.56;;;12.40;100.00
30339;BME280;795;49.296;11.348;2022-09-13T03:09:23;96001.44;;;12.56;100.00
30339;BME280;795;49.296;11.348;2022-09-13T03:12:40;96003.66;;;12.53;100.00
30339;BME280;795;49.296;11.348;2022-09-13T03:15:42;96012.56;;;12.53;100.00
30339;BME280;795;49.296;11.348;2022-09-13T03:18:36;96005.91;;;12.49;100.00
30339;BME280;795;49.296;11.348;2022-09-13T03:21:23;95987.38;;;12.40;100.00
30339;BME280;795;49.296;11.348;2022-09-13T03:24:25;96007.03;;;12.40;100.00
30339;BME280;795;49.296;11.348;2022-09-13T03:27:29;96012.06;;;12.29;100.00
30339;BME280;795;49.296;11.348;2022-09-13T03:30:10;96015.59;;;12.29;100.00
30339;BME280;795;49.296;11.348;2022-09-13T03:33:22;95999.00;;;12.11;100.00
30339;BME280;795;49.296;11.348;2022-09-13T03:36:20;96000.31;;;12.15;100.00
30339;BME280;795;49.296;11.348;2022-09-13T03:39:47;95996.16;;;12.13;100.00
30339;BME280;795;49.296;11.348;2022-09-13T03:42:52;95973.78;;;12.12;100.00
30339;BME280;795;49.296;11.348;2022-09-13T03:45:30;95968.56;;;12.25;100.00
30339;BME280;795;49.296;11.348;2022-09-13T03:48:01;95983.94;;;12.31;100.00
30339;BME280;795;49.296;11.348;2022-09-13T03:50:31;95990.47;;;12.22;100.00
30339;BME280;795;49.296;11.348;2022-09-13T03:53:11;95997.13;;;12.26;100.00
30339;BME280;795;49.296;11.348;2022-09-13T03:55:41;95998.63;;;12.29;100.00
30339;BME280;795;49.296;11.348;2022-09-13T03:58:14;95970.72;;;12.15;100.00
30339;BME280;795;49.296;11.348;2022-09-13T04:00:42;95976.81;;;12.24;100.00
30339;BME280;795;49.296;11.348;2022-09-13T04:03:12;95982.78;;;12.19;100.00
30339;BME280;795;49.296;11.348;2022-09-13T04:05:39;95989.28;;;12.10;100.00
30339;BME280;795;49.296;11.348;2022-09-13T04:08:07;95978.34;;;12.12;100.00
30339;BME280;795;49.296;11.348;2022-09-13T04:10:35;95980.91;;;12.20;100.00
30339;BME280;795;49.296;11.348;2022-09-13T04:13:03;95984.81;;;12.17;100.00
30339;BME280;795;49.296;11.348;2022-09-13T04:15:30;95974.66;;;11.98;100.00
30339;BME280;795;49.296;11.348;2022-09-13T04:17:59;95995.78;;;12.16;100.00
30339;BME280;795;49.296;11.348;2022-09-13T04:20:26;95994.59;;;12.04;100.00
30339;BME280;795;49.296;11.348;2022-09-13T04:22:56;95997.94;;;11.91;100.00
30339;BME280;795;49.296;11.348;2022-09-13T04:25:23;96000.44;;;11.78;100.00
30339;BME280;795;49.296;11.348;2022-09-13T04:27:55;95992.94;;;11.88;100.00
30339;BME280;795;49.296;11.348;2022-09-13T04:30:23;95977.91;;;11.93;100.00
30339;BME280;795;49.296;11.348;2022-09-13T04:32:51;95978.28;;;11.76;100.00
30339;BME280;795;49.296;11.348;2022-09-13T04:35:18;96001.66;;;11.90;100.00
30339;BME280;795;49.296;11.348;2022-09-13T04:37:45;95989.88;;;11.91;100.00
30339;BME280;795;49.296;11.348;2022-09-13T04:40:13;95989.03;;;11.90;100.00
30339;BME280;795;49.296;11.348;2022-09-13T04:42:40;95990.63;;;11.85;100.00
30339;BME280;795;49.296;11.348;2022-09-13T04:45:09;95993.31;;;11.85;100.00
30339;BME280;795;49.296;11.348;2022-09-13T04:47:36;95984.13;;;11.94;100.00
30339;BME280;795;49.296;11.348;2022-09-13T04:50:04;95987.66;;;11.80;100.00
30339;BME280;795;49.296;11.348;2022-09-13T04:52:33;95999.34;;;11.72;100.00
30339;BME280;795;49.296;11.348;2022-09-13T04:55:00;96008.44;;;11.86;100.00
30339;BME280;795;49.296;11.348;2022-09-13T04:57:28;96015.06;;;11.61;100.00
30339;BME280;795;49.296;11.348;2022-09-13T04:59:55;96000.25;;;11.65;100.00
30339;BME280;795;49.296;11.348;2022-09-13T05:02:22;96000.38;;;11.71;100.00
30339;BME280;795;49.296;11.348;2022-09-13T05:04:49;95993.94;;;11.72;100.00
30339;BME280;795;49.296;11.348;2022-09-13T05:07:16;96001.22;;;11.72;100.00
30339;BME280;795;49.296;11.348;2022-09-13T05:09:43;96005.63;;;11.65;100.00
30339;BME280;795;49.296;11.348;2022-09-13T05:12:10;96022.03;;;11.55;100.00
30339;BME280;795;49.296;11.348;2022-09-13T05:14:37;96038.03;;;11.49;100.00
30339;BME280;795;49.296;11.348;2022-09-13T05:17:04;96030.47;;;11.67;100.00
30339;BME280;795;49.296;11.348;2022-09-13T05:19:32;96034.97;;;11.89;100.00
30339;BME280;795;49.296;11.348;2022-09-13T05:22:00;96028.53;;;12.05;100.00
30339;BME280;795;49.296;11.348;2022-09-13T05:24:27;96004.22;;;12.13;100.00
30339;BME280;795;49.296;11.348;2022-09-13T05:26:54;96032.41;;;12.31;100.00
30339;BME280;795;49.296;11.348;2022-09-13T05:29:21;96030.34;;;12.33;100.00
30339;BME280;795;49.296;11.348;2022-09-13T05:31:48;96031.78;;;12.50;100.00
30339;BME280;795;49.296;11.348;2022-09-13T05:34:17;96018.78;;;12.54;100.00
30339;BME280;795;49.296;11.348;2022-09-13T05:36:45;96010.03;;;12.67;100.00
30339;BME280;795;49.296;11.348;2022-09-13T05:39:20;96009.88;;;12.75;100.00
30339;BME280;795;49.296;11.348;2022-09-13T05:42:08;96005.31;;;12.96;100.00
30339;BME280;795;49.296;11.348;2022-09-13T05:44:35;95986.53;;;13.03;100.00
30339;BME280;795;49.296;11.348;2022-09-13T05:47:02;95979.66;;;13.21;100.00
30339;BME280;795;49.296;11.348;2022-09-13T05:49:29;95988.78;;;13.48;100.00
30339;BME280;795;49.296;11.348;2022-09-13T05:51:55;95982.28;;;13.70;100.00
30339;BME280;795;49.296;11.348;2022-09-13T05:54:22;95983.44;;;13.95;100.00
30339;BME280;795;49.296;11.348;2022-09-13T05:56:49;95984.91;;;14.39;100.00
30339;BME280;795;49.296;11.348;2022-09-13T05:59:18;95987.09;;;14.70;100.00
30339;BME280;795;49.296;11.348;2022-09-13T06:01:45;95995.25;;;15.15;100.00
30339;BME280;795;49.296;11.348;2022-09-13T06:04:12;96002.34;;;15.49;100.00
30339;BME280;795;49.296;11.348;2022-09-13T06:06:40;96008.53;;;15.89;100.00
30339;BME280;795;49.296;11.348;2022-09-13T06:09:09;95995.88;;;15.76;100.00
30339;BME280;795;49.296;11.348;2022-09-13T06:11:37;96002.94;;;15.77;100.00
30339;BME280;795;49.296;11.348;2022-09-13T06:14:03;95984.41;;;15.81;100.00
30339;BME280;795;49.296;11.348;2022-09-13T06:16:30;95994.56;;;15.99;100.00
30339;BME280;795;49.296;11.348;2022-09-13T06:18:58;96001.88;;;15.91;100.00
30339;BME280;795;49.296;11.348;2022-09-13T06:21:25;95997.09;;;15.87;100.00
30339;BME280;795;49.296;11.348;2022-09-13T06:23:55;95989.41;;;15.77;100.00
30339;BME280;795;49.296;11.348;2022-09-13T06:26:26;95994.81;;;15.84;100.00
30339;BME280;795;49.296;11.348;2022-09-13T06:28:56;95990.22;;;15.84;100.00
30339;BME280;795;49.296;11.348;2022-09-13T06:31:27;95990.25;;;15.78;100.00
30339;BME280;795;49.296;11.348;2022-09-13T06:33:58;96000.25;;;15.84;100.00
30339;BME280;795;49.296;11.348;2022-09-13T06:36:26;96000.22;;;15.90;100.00
30339;BME280;795;49.296;11.348;2022-09-13T06:38:53;96006.22;;;15.99;100.00
30339;BME280;795;49.296;11.348;2022-09-13T06:41:23;96007.47;;;16.03;100.00
30339;BME280;795;49.296;11.348;2022-09-13T06:43:58;96013.50;;;16.05;100.00
30339;BME280;795;49.296;11.348;2022-09-13T06:46:30;96020.78;;;16.11;100.00
30339;BME280;795;49.296;11.348;2022-09-13T06:49:02;96006.63;;;16.09;100.00
30339;BME280;795;49.296;11.348;2022-09-13T06:51:32;96019.53;;;16.20;100.00
30339;BME280;795;49.296;11.348;2022-09-13T06:54:01;96015.09;;;16.32;100.00
30339;BME280;795;49.296;11.348;2022-09-13T06:56:36;96012.53;;;16.44;100.00
30339;BME280;795;49.296;11.348;2022-09-13T06:59:07;96010.25;;;16.54;100.00
30339;BME280;795;49.296;11.348;2022-09-13T07:01:40;96005.03;;;16.52;100.00
30339;BME280;795;49.296;11.348;2022-09-13T07:04:15;96006.19;;;16.70;100.00
30339;BME280;795;49.296;11.348;2022-09-13T07:06:46;96013.47;;;16.69;100.00
30339;BME280;795;49.296;11.348;2022-09-13T07:09:20;96013.47;;;16.76;100.00
30339;BME280;795;49.296;11.348;2022-09-13T07:11:54;96012.38;;;16.83;100.00
30339;BME280;795;49.296;11.348;2022-09-13T07:14:26;96013.91;;;17.04;100.00
30339;BME280;795;49.296;11.348;2022-09-13T07:16:54;96014.53;;;17.06;100.00
30339;BME280;795;49.296;11.348;2022-09-13T07:19:25;96010.22;;;17.23;100.00
30339;BME280;795;49.296;11.348;2022-09-13T07:21:55;96011.97;;;17.42;100.00
30339;BME280;795;49.296;11.348;2022-09-13T07:24:23;96013.06;;;17.35;100.00
30339;BME280;795;49.296;11.348;2022-09-13T07:26:50;96008.25;;;17.37;100.00
30339;BME280;795;49.296;11.348;2022-09-13T07:29:21;96018.78;;;17.51;100.00
30339;BME280;795;49.296;11.348;2022-09-13T07:31:53;96015.56;;;17.67;100.00
30339;BME280;795;49.296;11.348;2022-09-13T07:34:23;96019.41;;;17.78;100.00
30339;BME280;795;49.296;11.348;2022-09-13T07:36:51;96014.47;;;17.68;100.00
30339;BME280;795;49.296;11.348;2022-09-13T07:39:19;96022.47;;;17.63;100.00
30339;BME280;795;49.296;11.348;2022-09-13T07:41:49;96024.31;;;17.69;100.00
30339;BME280;795;49.296;11.348;2022-09-13T07:44:16;96027.00;;;17.69;100.00
30339;BME280;795;49.296;11.348;2022-09-13T07:46:43;96025.22;;;17.81;100.00
30339;BME280;795;49.296;11.348;2022-09-13T07:49:16;96029.91;;;18.35;100.00
30339;BME280;795;49.296;11.348;2022-09-13T07:51:44;96025.31;;;18.54;98.05
30339;BME280;795;49.296;11.348;2022-09-13T07:54:17;96026.84;;;18.98;95.65
30339;BME280;795;49.296;11.348;2022-09-13T07:56:44;96024.69;;;19.30;94.36
30339;BME280;795;49.296;11.348;2022-09-13T07:59:15;96029.50;;;19.46;92.02
30339;BME280;795;49.296;11.348;2022-09-13T08:03:36;96036.59;;;19.17;92.93
30339;BME280;795;49.296;11.348;2022-09-13T08:06:06;96033.31;;;19.27;93.90
30339;BME280;795;49.296;11.348;2022-09-13T08:08:36;96031.91;;;19.36;94.75
30339;BME280;795;49.296;11.348;2022-09-13T08:11:06;96033.31;;;19.27;91.45
30339;BME280;795;49.296;11.348;2022-09-13T08:13:33;96031.88;;;19.42;93.47
30339;BME280;795;49.296;11.348;2022-09-13T08:16:05;96020.28;;;19.47;93.49
30339;BME280;795;49.296;11.348;2022-09-13T08:18:32;96023.03;;;19.29;93.05
30339;BME280;795;49.296;11.348;2022-09-13T08:21:00;96030.47;;;19.63;94.84
30339;BME280;795;49.296;11.348;2022-09-13T08:23:27;96028.84;;;19.85;91.51
30339;BME280;795;49.296;11.348;2022-09-13T08:26:00;96041.06;;;19.94;89.78
30339;BME280;795;49.296;11.348;2022-09-13T08:28:32;96028.50;;;20.05;90.21
30339;BME280;795;49.296;11.348;2022-09-13T08:31:10;96029.44;;;20.22;88.96
30339;BME280;795;49.296;11.348;2022-09-13T08:33:38;96028.75;;;20.26;89.41
30339;BME280;795;49.296;11.348;2022-09-13T08:36:10;96030.31;;;20.34;90.56
30339;BME280;795;49.296;11.348;2022-09-13T08:38:37;96038.09;;;20.42;89.58
30339;BME280;795;49.296;11.348;2022-09-13T08:44:34;96043.41;;;20.60;86.71
30339;BME280;795;49.296;11.348;2022-09-13T08:47:40;96040.22;;;20.63;86.44
30339;BME280;795;49.296;11.348;2022-09-13T08:50:24;96036.09;;;20.49;87.29
30339;BME280;795;49.296;11.348;2022-09-13T08:56:28;96040.03;;;21.49;84.12
30339;BME280;795;49.296;11.348;2022-09-13T09:05:12;96043.03;;;23.88;71.91
30339;BME280;795;49.296;11.348;2022-09-13T09:07:53;96034.56;;;24.63;66.22
30339;BME280;795;49.296;11.348;2022-09-13T09:10:39;96043.38;;;25.17;61.03
30339;BME280;795;49.296;11.348;2022-09-13T09:13:33;96032.78;;;24.88;61.87
30339;BME280;795;49.296;11.348;2022-09-13T09:18:56;96040.50;;;26.09;57.59
30339;BME280;795;49.296;11.348;2022-09-13T09:21:26;96034.47;;;25.87;57.26
30339;BME280;795;49.296;11.348;2022-09-13T09:23:54;96034.16;;;25.73;56.26
30339;BME280;795;49.296;11.348;2022-09-13T09:26:26;96035.56;;;26.01;56.48
30339;BME280;795;49.296;11.348;2022-09-13T09:29:28;96034.63;;;25.35;58.17
30339;BME280;795;49.296;11.348;2022-09-13T09:32:42;96037.16;;;25.51;57.13
30339;BME280;795;49.296;11.348;2022-09-13T09:35:58;96030.09;;;24.98;57.27
30339;BME280;795;49.296;11.348;2022-09-13T09:38:39;96024.09;;;24.60;59.74
30339;BME280;795;49.296;11.348;2022-09-13T09:41:31;96032.28;;;23.81;62.74
30339;BME280;795;49.296;11.348;2022-09-13T09:44:27;96033.34;;;23.48;63.87
30339;BME280;795;49.296;11.348;2022-09-13T09:47:24;96047.78;;;23.39;63.77
30339;BME280;795;49.296;11.348;2022-09-13T09:50:14;96041.97;;;23.13;64.69
30339;BME280;795;49.296;11.348;2022-09-13T09:55:49;96045.19;;;23.05;68.10
30339;BME280;795;49.296;11.348;2022-09-13T09:58:38;96042.47;;;23.32;68.33
30339;BME280;795;49.296;11.348;2022-09-13T10:04:14;96042.06;;;23.45;66.25
30339;BME280;795;49.296;11.348;2022-09-13T10:06:44;96042.34;;;23.44;64.90
30339;BME280;795;49.296;11.348;2022-09-13T10:11:53;96039.94;;;23.04;66.04
30339;BME280;795;49.296;11.348;2022-09-13T10:17:28;96030.84;;;22.60;68.96
30339;BME280;795;49.296;11.348;2022-09-13T10:22:40;96025.63;;;22.37;70.91
30339;BME280;795;49.296;11.348;2022-09-13T10:25:24;96029.03;;;22.27;73.47
30339;BME280;795;49.296;11.348;2022-09-13T10:27:58;96012.13;;;22.30;72.02
30339;BME280;795;49.296;11.348;2022-09-13T10:36:21;95988.34;;;22.53;69.68
30339;BME280;795;49.296;11.348;2022-09-13T10:39:18;95977.06;;;22.66;70.67
30339;BME280;795;49.296;11.348;2022-09-13T10:44:53;95985.91;;;22.73;71.59
30339;BME280;795;49.296;11.348;2022-09-13T10:47:32;95983.47;;;22.98;70.13
30339;BME280;795;49.296;11.348;2022-09-13T10:50:28;95991.19;;;23.49;66.63
30339;BME280;795;49.296;11.348;2022-09-13T10:53:00;95987.84;;;23.79;67.90
30339;BME280;795;49.296;11.348;2022-09-13T10:55:38;95991.50;;;23.58;66.00
30339;BME280;795;49.296;11.348;2022-09-13T11:04:28;95962.00;;;23.11;69.65
30339;BME280;795;49.296;11.348;2022-09-13T11:07:53;95965.13;;;22.33;70.39
30339;BME280;795;49.296;11.348;2022-09-13T11:11:17;95956.53;;;22.25;74.44
30339;BME280;795;49.296;11.348;2022-09-13T11:14:31;95965.72;;;22.57;74.16
30339;BME280;795;49.296;11.348;2022-09-13T11:21:18;95965.63;;;23.75;68.78
30339;BME280;795;49.296;11.348;2022-09-13T11:30:20;95974.75;;;24.70;62.93
30339;BME280;795;49.296;11.348;2022-09-13T11:36:27;95976.06;;;25.29;58.11
30339;BME280;795;49.296;11.348;2022-09-13T11:39:37;95971.75;;;25.89;56.97
30339;BME280;795;49.296;11.348;2022-09-13T11:48:28;95994.44;;;27.54;51.39
30339;BME280;795;49.296;11.348;2022-09-13T11:51:52;95990.13;;;26.59;53.64
30339;BME280;795;49.296;11.348;2022-09-13T11:55:01;95984.41;;;26.05;55.50
30339;BME280;795;49.296;11.348;2022-09-13T11:57:49;95986.59;;;25.78;56.56
30339;BME280;795;49.296;11.348;2022-09-13T12:00:59;95990.44;;;26.02;56.46
30339;BME280;795;49.296;11.348;2022-09-13T12:03:48;95997.63;;;26.18;55.84
30339;BME280;795;49.296;11.348;2022-09-13T12:06:39;95985.50;;;26.19;55.11
30339;BME280;795;49.296;11.348;2022-09-13T12:09:21;95991.81;;;25.94;54.72
30339;BME280;795;49.296;11.348;2022-09-13T12:12:13;95981.34;;;25.46;55.67
30339;BME280;795;49.296;11.348;2022-09-13T12:15:07;95984.03;;;24.64;58.79
30339;BME280;795;49.296;11.348;2022-09-13T12:17:47;95984.94;;;24.27;60.34
30339;BME280;795;49.296;11.348;2022-09-13T12:20:40;95973.06;;;24.12;60.77
30339;BME280;795;49.296;11.348;2022-09-13T12:23:32;95975.41;;;24.03;61.75
30339;BME280;795;49.296;11.348;2022-09-13T12:26:25;95975.00;;;24.16;61.13
30339;BME280;795;49.296;11.348;2022-09-13T12:29:28;95974.41;;;24.09;63.06
30339;BME280;795;49.296;11.348;2022-09-13T12:32:05;95976.44;;;23.92;63.22
30339;BME280;795;49.296;11.348;2022-09-13T12:35:06;95976.00;;;23.68;64.15
30339;BME280;795;49.296;11.348;2022-09-13T12:38:27;95972.84;;;23.55;62.68
30339;BME280;795;49.296;11.348;2022-09-13T12:44:15;95972.44;;;22.66;66.54
30339;BME280;795;49.296;11.348;2022-09-13T12:47:09;95977.16;;;22.54;69.16
30339;BME280;795;49.296;11.348;2022-09-13T12:56:34;95977.13;;;23.19;63.43
30339;BME280;795;49.296;11.348;2022-09-13T13:05:06;95961.88;;;23.28;61.59
30339;BME280;795;49.296;11.348;2022-09-13T13:07:56;95952.44;;;23.14;63.15
30339;BME280;795;49.296;11.348;2022-09-13T13:10:30;95949.22;;;22.95;63.79
30339;BME280;795;49.296;11.348;2022-09-13T13:13:23;95944.66;;;23.01;64.55
30339;BME280;795;49.296;11.348;2022-09-13T13:18:47;95937.19;;;22.96;65.72
30339;BME280;795;49.296;11.348;2022-09-13T13:21:36;95932.34;;;22.77;66.39
30339;BME280;795;49.296;11.348;2022-09-13T13:26:57;95937.03;;;22.60;65.19
30339;BME280;795;49.296;11.348;2022-09-13T13:29:31;95943.97;;;22.67;65.62
30339;BME280;795;49.296;11.348;2022-09-13T13:34:50;95937.03;;;22.60;65.65
30339;BME280;795;49.296;11.348;2022-09-13T13:39:47;95924.31;;;22.70;66.21
30339;BME280;795;49.296;11.348;2022-09-13T13:55:38;95925.72;;;22.99;63.95
30339;BME280;795;49.296;11.348;2022-09-13T13:58:36;95918.59;;;22.98;63.40
30339;BME280;795;49.296;11.348;2022-09-13T14:01:21;95919.69;;;22.97;64.65
30339;BME280;795;49.296;11.348;2022-09-13T14:10:52;95924.69;;;22.79;65.97
30339;BME280;795;49.296;11.348;2022-09-13T14:13:52;95917.22;;;22.96;65.49
30339;BME280;795;49.296;11.348;2022-09-13T14:22:23;95906.56;;;22.99;66.71
30339;BME280;795;49.296;11.348;2022-09-13T14:25:31;95903.16;;;22.87;68.21
30339;BME280;795;49.296;11.348;2022-09-13T14:27:59;95896.03;;;22.86;68.13
30339;BME280;795;49.296;11.348;2022-09-13T14:30:36;95897.28;;;23.00;69.37
30339;BME280;795;49.296;11.348;2022-09-13T14:33:04;95896.28;;;22.85;68.25
30339;BME280;795;49.296;11.348;2022-09-13T14:35:38;95900.63;;;22.81;68.56
30339;BME280;795;49.296;11.348;2022-09-13T14:38:21;95893.91;;;22.93;68.54
30339;BME280;795;49.296;11.348;2022-09-13T14:40:53;95893.91;;;22.93;68.40
30339;BME280;795;49.296;11.348;2022-09-13T14:43:27;95887.63;;;23.25;67.88
30339;BME280;795;49.296;11.348;2022-09-13T14:46:21;95875.31;;;23.54;65.10
30339;BME280;795;49.296;11.348;2022-09-13T14:49:06;95879.03;;;23.80;64.30
30339;BME280;795;49.296;11.348;2022-09-13T14:51:59;95872.69;;;24.16;63.01
30339;BME280;795;49.296;11.348;2022-09-13T14:54:43;95868.22;;;24.05;63.33
30339;BME280;795;49.296;11.348;2022-09-13T14:57:49;95874.13;;;24.28;62.39
30339;BME280;795;49.296;11.348;2022-09-13T15:00:22;95873.59;;;24.41;61.81
30339;BME280;795;49.296;11.348;2022-09-13T15:03:04;95861.22;;;24.24;62.10
30339;BME280;795;49.296;11.348;2022-09-13T15:05:39;95868.53;;;24.08;62.70
30339;BME280;795;49.296;11.348;2022-09-13T15:11:03;95867.19;;;24.16;61.96
30339;BME280;795;49.296;11.348;2022-09-13T15:13:33;95866.97;;;24.27;61.94
30339;BME280;795;49.296;11.348;2022-09-13T15:16:00;95866.16;;;24.32;62.69
30339;BME280;795;49.296;11.348;2022-09-13T15:18:32;95873.06;;;24.39;61.84
30339;BME280;795;49.296;11.348;2022-09-13T15:21:14;95870.28;;;24.24;62.17
30339;BME280;795;49.296;11.348;2022-09-13T15:23:49;95864.28;;;24.37;62.35
30339;BME280;795;49.296;11.348;2022-09-13T15:26:24;95860.38;;;24.23;61.82
30339;BME280;795;49.296;11.348;2022-09-13T15:28:59;95860.09;;;24.15;61.70
30339;BME280;795;49.296;11.348;2022-09-13T15:31:34;95856.66;;;23.98;63.12
30339;BME280;795;49.296;11.348;2022-09-13T15:34:21;95855.78;;;23.87;63.34
30339;BME280;795;49.296;11.348;2022-09-13T15:37:10;95848.03;;;23.79;64.78
30339;BME280;795;49.296;11.348;2022-09-13T15:40:10;95848.28;;;23.72;68.05
30339;BME280;795;49.296;11.348;2022-09-13T15:42:37;95846.44;;;23.41;68.49
30339;BME280;795;49.296;11.348;2022-09-13T15:45:05;95844.66;;;23.30;68.56
30339;BME280;795;49.296;11.348;2022-09-13T15:47:32;95846.16;;;23.11;69.91
30339;BME280;795;49.296;11.348;2022-09-13T15:50:00;95843.34;;;23.01;71.95
30339;BME280;795;49.296;11.348;2022-09-13T15:52:26;95839.44;;;22.97;71.93
30339;BME280;795;49.296;11.348;2022-09-13T15:54:53;95842.63;;;23.16;70.87
30339;BME280;795;49.296;11.348;2022-09-13T15:57:26;95847.63;;;22.92;71.04
30339;BME280;795;49.296;11.348;2022-09-13T15:59:55;95840.69;;;22.84;72.03
30339;BME280;795;49.296;11.348;2022-09-13T16:02:33;95846.59;;;22.98;73.05
30339;BME280;795;49.296;11.348;2022-09-13T16:05:01;95844.31;;;22.90;73.50
30339;BME280;795;49.296;11.348;2022-09-13T16:07:28;95836.47;;;22.98;74.44
30339;BME280;795;49.296;11.348;2022-09-13T16:09:55;95845.34;;;23.10;75.40
30339;BME280;795;49.296;11.348;2022-09-13T16:12:22;95839.88;;;23.10;73.23
30339;BME280;795;49.296;11.348;2022-09-13T16:14:50;95838.88;;;22.95;74.23
30339;BME280;795;49.296;11.348;2022-09-13T16:17:26;95842.31;;;22.80;76.09
30339;BME280;795;49.296;11.348;2022-09-13T16:19:54;95837.88;;;22.53;75.97